Time;durP1;ratioP1;P1;durP2;ratioP2;P2;SDS_P1;SDS_P2;PMS_P1;PMS_P2;Temp;Humidity;BMP_temperature;BMP_pressure;BME280_temperature;BME280_humidity;BME280_pressure;Samples;Min_cycle;Max_cycle;Signal;HPM_P1;HPM_P2
2023/01/26 00:01:30;;;;;;;22.85;10.00;;;;;;;-3.43;100.00;99202.53;4216968;28;20044;-73
2023/01/26 00:03:30;;;;;;;22.20;8.90;;;;;;;-3.40;100.00;99189.25;4218037;28;20342;-73
2023/01/26 00:05:30;;;;;;;23.55;8.82;;;;;;;-3.35;100.00;99195.78;4218035;28;20035;-73
2023/01/26 00:07:31;;;;;;;22.13;9.93;;;;;;;-3.36;100.00;99197.66;4218706;28;20040;-73
2023/01/26 00:09:31;;;;;;;22.00;9.73;;;;;;;-3.36;100.00;99192.25;4220037;28;20046;-73
2023/01/26 00:11:31;;;;;;;19.25;9.45;;;;;;;-3.36;100.00;99192.25;4217975;28;20150;-73
2023/01/26 00:13:33;;;;;;;20.52;9.48;;;;;;;-3.35;100.00;99184.94;4214607;28;20054;-74
2023/01/26 00:15:35;;;;;;;18.85;9.35;;;;;;;-3.35;100.00;99183.06;4209795;28;20475;-73
2023/01/26 00:17:37;;;;;;;20.88;10.13;;;;;;;-3.34;100.00;99181.16;4203063;28;20074;-73
2023/01/26 00:19:37;;;;;;;18.70;8.82;;;;;;;-3.35;100.00;99187.66;4213122;28;20109;-73
2023/01/26 00:21:37;;;;;;;19.45;9.27;;;;;;;-3.36;100.00;99180.63;4218462;28;20051;-75
2023/01/26 00:23:38;;;;;;;22.08;9.55;;;;;;;-3.38;100.00;99172.78;4217615;28;20247;-73
2023/01/26 00:25:41;;;;;;;24.20;9.63;;;;;;;-3.35;100.00;99171.41;4218043;28;20120;-75
2023/01/26 00:27:41;;;;;;;23.30;9.95;;;;;;;-3.34;100.00;99171.16;4218237;28;20083;-73
2023/01/26 00:29:41;;;;;;;20.08;9.77;;;;;;;-3.34;100.00;99170.34;4206885;27;20441;-73
2023/01/26 00:31:41;;;;;;;21.27;9.18;;;;;;;-3.33;100.00;99159.25;4203524;28;20564;-74
2023/01/26 00:33:42;;;;;;;25.02;10.30;;;;;;;-3.32;100.00;99160.03;4202433;28;20418;-74
2023/01/26 00:35:43;;;;;;;19.75;8.57;;;;;;;-3.31;100.00;99157.09;4202447;28;20048;-74
2023/01/26 00:37:43;;;;;;;20.67;9.85;;;;;;;-3.31;100.00;99153.53;4201762;28;20576;-74
2023/01/26 00:39:44;;;;;;;27.67;10.48;;;;;;;-3.28;100.00;99163.84;4211039;28;20151;-74
2023/01/26 00:44:03;;;;;;;22.58;10.75;;;;;;;-3.26;100.00;99148.97;4215894;28;20229;-74
2023/01/26 00:46:04;;;;;;;21.83;9.75;;;;;;;-3.27;100.00;99151.94;4218307;28;20028;-74
2023/01/26 00:48:04;;;;;;;17.55;8.57;;;;;;;-3.21;100.00;99161.69;4211716;28;20100;-74
2023/01/26 00:50:05;;;;;;;23.73;11.00;;;;;;;-3.18;100.00;99156.53;4217983;28;20027;-74
2023/01/26 00:52:06;;;;;;;18.40;8.98;;;;;;;-3.12;100.00;99157.34;4213042;28;20368;-74
2023/01/26 00:54:06;;;;;;;22.20;9.50;;;;;;;-3.14;100.00;99154.13;4207988;28;20284;-74
2023/01/26 00:56:07;;;;;;;20.88;9.27;;;;;;;-3.19;100.00;99154.91;4218030;27;20518;-74
2023/01/26 00:58:08;;;;;;;21.27;10.02;;;;;;;-3.21;100.00;99150.88;4208251;28;20530;-74
2023/01/26 01:00:12;;;;;;;21.00;10.23;;;;;;;-3.21;100.00;99150.88;4206930;28;20161;-74
2023/01/26 01:02:12;;;;;;;22.75;10.50;;;;;;;-3.22;100.00;99152.75;4207882;28;20285;-74
2023/01/26 01:04:14;;;;;;;21.48;9.98;;;;;;;-3.20;100.00;99152.47;4207508;28;20063;-74
2023/01/26 01:06:14;;;;;;;17.52;9.90;;;;;;;-3.25;100.00;99149.75;4207265;28;20028;-74
2023/01/26 01:08:14;;;;;;;21.58;9.30;;;;;;;-3.21;100.00;99158.97;4210822;28;20468;-74
2023/01/26 01:10:15;;;;;;;20.48;9.95;;;;;;;-3.28;100.00;99155.72;4218519;28;20491;-74
2023/01/26 01:12:15;;;;;;;21.50;9.32;;;;;;;-3.30;100.00;99171.44;4217005;28;20510;-74
2023/01/26 01:14:16;;;;;;;18.80;8.63;;;;;;;-3.32;100.00;99155.44;4218109;28;20042;-74
2023/01/26 01:16:17;;;;;;;22.25;10.45;;;;;;;-3.35;100.00;99156.00;4206351;28;20174;-74
2023/01/26 01:18:17;;;;;;;19.58;9.23;;;;;;;-3.37;100.00;99149.25;4218706;28;20531;-74
2023/01/26 01:20:17;;;;;;;20.20;9.35;;;;;;;-3.30;100.00;99155.19;4216662;28;20039;-74
2023/01/26 01:22:18;;;;;;;21.15;9.40;;;;;;;-3.25;100.00;99145.16;4212057;28;20366;-74
2023/01/26 01:24:18;;;;;;;20.30;9.23;;;;;;;-3.17;100.00;99147.31;4217995;28;20114;-74
2023/01/26 01:26:18;;;;;;;20.83;9.40;;;;;;;-3.15;100.00;99147.03;4217101;27;20061;-74
2023/01/26 01:28:19;;;;;;;22.10;9.07;;;;;;;-3.16;100.00;99140.00;4218723;28;20030;-74
2023/01/26 01:30:19;;;;;;;20.17;8.82;;;;;;;-3.12;100.00;99130.28;4216371;28;20399;-74
2023/01/26 01:32:20;;;;;;;21.77;9.15;;;;;;;-3.06;100.00;99122.94;4204458;28;20058;-74
2023/01/26 01:34:20;;;;;;;17.15;8.63;;;;;;;-3.03;100.00;99135.94;4206602;28;20146;-74
2023/01/26 01:36:21;;;;;;;18.17;8.13;;;;;;;-3.06;100.00;99137.31;4210042;28;20059;-74
2023/01/26 01:38:21;;;;;;;20.33;9.98;;;;;;;-3.10;100.00;99133.53;4218548;28;20050;-74
2023/01/26 01:40:21;;;;;;;24.35;10.07;;;;;;;-3.11;100.00;99140.84;4217692;28;20050;-74
2023/01/26 01:42:22;;;;;;;19.60;9.07;;;;;;;-3.12;100.00;99141.91;4217640;28;20062;-74
2023/01/26 01:44:24;;;;;;;21.75;9.50;;;;;;;-3.10;100.00;99136.22;4217340;28;20398;-74
2023/01/26 01:46:34;;;;;;;20.83;9.88;;;;;;;-3.11;100.00;99134.59;4218189;28;20040;-74
2023/01/26 01:48:44;;;;;;;21.02;8.90;;;;;;;-3.12;100.00;99133.00;4201741;28;20500;-74
2023/01/26 01:50:46;;;;;;;21.55;8.93;;;;;;;-3.14;100.00;99127.84;4201929;28;20519;-74
2023/01/26 01:52:47;;;;;;;19.75;8.88;;;;;;;-3.14;100.00;99121.63;4201990;28;20056;-74
2023/01/26 01:55:09;;;;;;;20.42;9.43;;;;;;;-3.15;100.00;99119.97;4203067;28;20131;-74
2023/01/26 01:57:16;;;;;;;20.23;8.95;;;;;;;-3.11;100.00;99119.19;4202022;28;20087;-74
2023/01/26 01:59:21;;;;;;;21.98;9.13;;;;;;;-3.13;100.00;99117.84;4208458;28;20528;-74
2023/01/26 02:01:21;;;;;;;19.70;8.60;;;;;;;-3.12;100.00;99112.16;4217958;28;20043;-74
2023/01/26 02:03:22;;;;;;;21.10;8.80;;;;;;;-3.17;100.00;99114.03;4217376;28;20364;-74
2023/01/26 02:05:30;;;;;;;20.88;9.00;;;;;;;-3.18;100.00;99110.53;4217752;28;20439;-74
2023/01/26 02:07:31;;;;;;;16.48;8.35;;;;;;;-3.23;100.00;99110.50;4218146;28;20059;-74
2023/01/26 02:10:17;;;;;;;20.33;9.18;;;;;;;-3.30;100.00;99101.06;4218213;28;20052;-74
2023/01/26 02:12:01;;;;;;;20.63;9.43;;;;;;;-3.32;100.00;99098.63;4206528;28;20154;-74
2023/01/26 02:14:05;;;;;;;18.80;9.35;;;;;;;-3.31;100.00;99097.56;4217317;28;20044;-74
2023/01/26 02:16:06;;;;;;;20.50;9.23;;;;;;;-3.32;100.00;99104.03;4209051;28;20426;-74
2023/01/26 02:18:07;;;;;;;16.58;7.75;;;;;;;-3.34;100.00;99086.44;4218548;28;20326;-74
2023/01/26 02:20:27;;;;;;;23.17;9.77;;;;;;;-3.33;100.00;99096.19;4210211;28;20036;-74
2023/01/26 02:22:58;;;;;;;18.67;8.57;;;;;;;-3.30;100.00;99090.25;4202165;28;20056;-74
2023/01/26 02:25:05;;;;;;;23.38;8.85;;;;;;;-3.31;100.00;99085.91;4195455;28;20466;-74
2023/01/26 02:27:05;;;;;;;16.33;6.82;;;;;;;-3.35;100.00;99077.53;4217701;28;20044;-74
2023/01/26 02:29:09;;;;;;;21.23;9.10;;;;;;;-3.30;100.00;99087.53;4218797;28;20047;-74
2023/01/26 02:31:10;;;;;;;26.48;10.40;;;;;;;-3.38;100.00;99072.66;4202301;28;20036;-74
2023/01/26 02:33:17;;;;;;;19.08;9.52;;;;;;;-3.36;100.00;99069.69;4201985;28;20127;-74
2023/01/26 02:35:18;;;;;;;22.58;8.73;;;;;;;-3.33;100.00;99075.34;4202075;28;20373;-74
2023/01/26 02:37:18;;;;;;;21.48;8.68;;;;;;;-3.27;100.00;99076.97;4202589;28;20295;-74
2023/01/26 02:39:43;;;;;;;19.88;8.43;;;;;;;-3.34;100.00;99075.63;4202640;28;20044;-74
2023/01/26 02:44:07;;;;;;;20.58;9.15;;;;;;;-3.34;100.00;99068.31;4216866;28;20386;-74
2023/01/26 02:46:07;;;;;;;21.00;9.15;;;;;;;-3.34;100.00;99059.41;4217990;28;20032;-74
2023/01/26 02:48:08;;;;;;;22.67;9.10;;;;;;;-3.33;100.00;99067.22;4219477;28;20151;-74
2023/01/26 02:50:09;;;;;;;22.13;9.50;;;;;;;-3.36;100.00;99050.75;4220268;27;20034;-74
2023/01/26 02:52:09;;;;;;;23.23;9.32;;;;;;;-3.35;100.00;99046.94;4220996;28;20796;-74
2023/01/26 02:55:21;;;;;;;20.38;10.50;;;;;;;-3.36;100.00;99050.75;4211507;28;20040;-74
2023/01/26 02:56:30;;;;;;;18.40;8.50;;;;;;;-3.34;100.00;99045.88;4205092;28;20048;-74
2023/01/26 02:58:30;;;;;;;24.52;9.40;;;;;;;-3.37;100.00;99047.22;4207347;28;20533;-74
2023/01/26 03:00:35;;;;;;;20.48;9.90;;;;;;;-3.34;100.00;99046.66;4221256;28;20748;-74
2023/01/26 03:02:36;;;;;;;20.77;10.02;;;;;;;-3.39;100.00;99049.41;4210759;28;20472;-74
2023/01/26 03:04:36;;;;;;;21.83;10.80;;;;;;;-3.41;100.00;99044.25;4213809;28;20349;-74
2023/01/26 03:06:37;;;;;;;21.52;9.90;;;;;;;-3.37;100.00;99038.31;4207764;28;20075;-74
2023/01/26 03:08:38;;;;;;;22.48;10.07;;;;;;;-3.36;100.00;99053.44;4204861;28;20111;-74
2023/01/26 03:10:38;;;;;;;25.70;10.10;;;;;;;-3.40;100.00;99043.16;4205019;28;20135;-74
2023/01/26 03:12:39;;;;;;;22.67;9.65;;;;;;;-3.38;100.00;99053.72;4204788;28;20159;-74
2023/01/26 03:14:40;;;;;;;23.45;9.70;;;;;;;-3.36;100.00;99051.56;4204830;28;20160;-74
2023/01/26 03:16:41;;;;;;;20.80;9.57;;;;;;;-3.36;100.00;99048.84;4218629;28;20064;-74
2023/01/26 03:27:59;;;;;;;22.45;10.40;;;;;;;-3.43;100.00;99048.31;4213447;28;20100;-74
2023/01/26 03:29:59;;;;;;;19.45;9.25;;;;;;;-3.43;100.00;99046.41;4204419;28;20056;-74
2023/01/26 03:31:59;;;;;;;25.70;10.55;;;;;;;-3.42;100.00;99052.63;4204459;28;20134;-74
2023/01/26 03:34:00;;;;;;;24.17;10.52;;;;;;;-3.44;100.00;99036.69;4218193;28;20096;-74
2023/01/26 03:36:00;;;;;;;21.55;10.18;;;;;;;-3.41;100.00;99040.72;4219195;28;20513;-74
2023/01/26 03:38:00;;;;;;;23.10;9.10;;;;;;;-3.42;100.00;99042.63;4213079;28;20131;-74
2023/01/26 03:56:23;;;;;;;23.00;9.90;;;;;;;-3.53;100.00;99032.09;4206088;28;20042;-74
2023/01/26 03:58:23;;;;;;;22.42;9.85;;;;;;;-3.55;100.00;99032.38;4210941;28;20047;-74
2023/01/26 04:00:23;;;;;;;23.90;8.15;;;;;;;-3.60;100.00;99029.66;4210280;28;20467;-74
2023/01/26 04:09:21;;;;;;;21.73;9.07;;;;;;;-3.58;100.00;99021.28;4214962;28;20135;-74
2023/01/26 04:11:21;;;;;;;25.13;8.60;;;;;;;-3.57;100.00;99023.69;4209450;28;20449;-74
2023/01/26 04:22:43;;;;;;;21.70;8.77;;;;;;;-3.73;100.00;99017.50;4207266;28;20075;-74
2023/01/26 04:24:44;;;;;;;22.85;9.02;;;;;;;-3.72;100.00;99012.91;4206519;28;20138;-75
2023/01/26 04:26:44;;;;;;;17.65;7.53;;;;;;;-3.71;100.00;99017.25;4206947;28;20511;-74
2023/01/26 04:28:44;;;;;;;20.02;8.18;;;;;;;-3.74;100.00;99023.19;4209146;28;20044;-74
2023/01/26 04:30:45;;;;;;;18.80;8.20;;;;;;;-3.74;100.00;99017.78;4206908;28;20123;-75
2023/01/26 04:32:45;;;;;;;18.77;8.27;;;;;;;-3.70;100.00;99019.66;4206586;28;20068;-74
2023/01/26 04:34:45;;;;;;;19.60;8.57;;;;;;;-3.67;100.00;99026.41;4209651;28;20425;-75
2023/01/26 04:36:46;;;;;;;15.70;6.97;;;;;;;-3.71;100.00;99012.66;4206534;28;20047;-74
2023/01/26 04:38:46;;;;;;;18.50;7.53;;;;;;;-3.72;100.00;99011.03;4205977;28;20073;-74
2023/01/26 04:40:53;;;;;;;20.45;7.57;;;;;;;-3.71;100.00;99003.72;4206597;28;20075;-75
2023/01/26 04:42:53;;;;;;;17.88;8.48;;;;;;;-3.69;100.00;98998.84;4208529;28;20155;-74
2023/01/26 04:44:54;;;;;;;16.55;7.18;;;;;;;-3.65;100.00;99010.72;4210029;27;20425;-75
2023/01/26 04:46:54;;;;;;;19.50;7.78;;;;;;;-3.64;100.00;98995.31;4204699;28;20129;-75
2023/01/26 04:48:54;;;;;;;23.38;8.60;;;;;;;-3.61;100.00;99001.00;4208829;28;20071;-74
2023/01/26 04:50:57;;;;;;;22.45;9.38;;;;;;;-3.59;100.00;98998.00;4207920;28;20123;-75
2023/01/26 04:52:57;;;;;;;16.88;8.13;;;;;;;-3.55;100.00;99002.63;4207626;28;20039;-75
2023/01/26 04:54:57;;;;;;;19.25;7.88;;;;;;;-3.53;100.00;99002.34;4205881;28;20032;-75
2023/01/26 04:56:58;;;;;;;16.17;8.18;;;;;;;-3.59;100.00;98996.13;4209068;28;20062;-75
2023/01/26 04:59:00;;;;;;;17.58;7.93;;;;;;;-3.59;100.00;98998.81;4209154;28;20421;-74
2023/01/26 05:01:00;;;;;;;25.88;9.38;;;;;;;-3.63;100.00;98995.06;4200906;28;20052;-75
2023/01/26 05:03:01;;;;;;;20.35;8.30;;;;;;;-3.63;100.00;98995.06;4201074;28;20306;-75
2023/01/26 05:05:01;;;;;;;24.77;8.80;;;;;;;-3.65;100.00;99007.22;4199439;28;20042;-75
2023/01/26 05:07:01;;;;;;;20.75;8.77;;;;;;;-3.64;100.00;99000.72;4202186;28;20626;-75
2023/01/26 05:09:02;;;;;;;21.60;8.48;;;;;;;-3.66;100.00;99003.69;4200713;28;20087;-75
2023/01/26 05:11:03;;;;;;;17.92;8.23;;;;;;;-3.64;100.00;99000.72;4200619;28;20183;-75
2023/01/26 05:13:04;;;;;;;15.10;7.55;;;;;;;-3.77;100.00;98996.69;4198560;28;20043;-75
2023/01/26 05:15:04;;;;;;;20.02;9.10;;;;;;;-3.81;100.00;99009.91;4209092;28;20483;-75
2023/01/26 05:17:05;;;;;;;20.27;7.05;;;;;;;-3.77;100.00;99002.91;4206083;28;20050;-75
2023/01/26 05:19:05;;;;;;;16.73;7.53;;;;;;;-3.80;100.00;98999.94;4207119;28;20047;-74
2023/01/26 05:21:06;;;;;;;17.85;7.70;;;;;;;-3.73;100.00;98992.34;4206916;28;20059;-75
2023/01/26 05:23:06;;;;;;;18.40;9.02;;;;;;;-3.77;100.00;98988.56;4206312;28;20075;-75
2023/01/26 05:25:07;;;;;;;15.40;8.10;;;;;;;-3.76;100.00;98999.13;4205459;28;20071;-75
2023/01/26 05:27:19;;;;;;;17.20;8.75;;;;;;;-3.76;100.00;98990.19;4203483;28;20249;-75
2023/01/26 05:29:20;;;;;;;19.40;8.20;;;;;;;-3.75;100.00;98986.41;4208594;28;20699;-75
2023/01/26 05:31:20;;;;;;;17.85;7.55;;;;;;;-3.75;100.00;98994.53;4201849;28;20055;-75
2023/01/26 05:33:21;;;;;;;15.23;7.07;;;;;;;-3.78;100.00;98989.66;4207239;28;20450;-75
2023/01/26 05:35:21;;;;;;;16.08;7.65;;;;;;;-3.73;100.00;99008.56;4208953;28;20048;-75
2023/01/26 05:37:24;;;;;;;15.85;7.55;;;;;;;-3.77;100.00;99002.09;4202598;28;20097;-75
2023/01/26 05:39:24;;;;;;;18.13;8.45;;;;;;;-3.81;100.00;99003.72;4212155;28;20438;-75
2023/01/26 05:41:24;;;;;;;19.75;8.73;;;;;;;-3.81;100.00;99001.81;4218157;28;20051;-75
2023/01/26 05:43:25;;;;;;;15.65;7.05;;;;;;;-3.75;100.00;98999.94;4214281;28;20031;-75
2023/01/26 05:45:25;;;;;;;31.88;14.77;;;;;;;-3.76;100.00;99001.81;4206994;28;20047;-75
2023/01/26 05:47:26;;;;;;;26.73;12.25;;;;;;;-3.73;100.00;99008.56;4216909;28;20048;-75
2023/01/26 05:49:26;;;;;;;21.17;9.73;;;;;;;-3.77;100.00;99008.31;4212985;28;20067;-75
2023/01/26 05:51:27;;;;;;;18.13;9.45;;;;;;;-3.76;100.00;99009.13;4217695;28;20391;-75
2023/01/26 05:53:28;;;;;;;18.00;8.60;;;;;;;-3.76;100.00;99011.81;4207780;28;20051;-75
2023/01/26 05:55:28;;;;;;;15.57;8.32;;;;;;;-3.75;100.00;99008.84;4203149;28;20217;-75
2023/01/26 05:57:29;;;;;;;19.20;8.32;;;;;;;-3.70;100.00;99011.56;4202666;28;20047;-75
2023/01/26 05:59:29;;;;;;;17.80;8.57;;;;;;;-3.62;100.00;99004.78;4202721;28;20454;-75
2023/01/26 06:01:29;;;;;;;18.48;7.85;;;;;;;-3.61;100.00;99016.41;4202699;28;20227;-75
2023/01/26 06:03:30;;;;;;;22.67;8.85;;;;;;;-3.76;100.00;99007.22;4204391;28;20055;-75
2023/01/26 06:05:30;;;;;;;27.25;11.25;;;;;;;-3.76;100.00;99003.72;4217699;28;20134;-75
2023/01/26 06:07:31;;;;;;;16.60;7.13;;;;;;;-3.72;100.00;99011.03;4217096;28;20051;-75
2023/01/26 06:09:31;;;;;;;14.80;7.45;;;;;;;-3.75;100.00;99011.56;4218456;28;20062;-75
2023/01/26 06:11:32;;;;;;;18.05;7.60;;;;;;;-3.73;100.00;99016.69;4217806;28;20410;-75
2023/01/26 06:13:32;;;;;;;16.85;7.30;;;;;;;-3.69;100.00;99015.06;4211032;28;20036;-75
2023/01/26 06:15:33;;;;;;;18.23;7.72;;;;;;;-3.72;100.00;99012.91;4211604;28;20053;-75
2023/01/26 06:17:33;;;;;;;18.42;7.85;;;;;;;-3.81;100.00;99017.22;4204180;28;20040;-75
2023/01/26 06:19:35;;;;;;;24.58;10.55;;;;;;;-3.81;100.00;99015.34;4205917;28;20048;-75
2023/01/26 06:21:35;;;;;;;35.53;14.00;;;;;;;-3.85;100.00;99025.09;4215539;28;20058;-75
2023/01/26 06:23:36;;;;;;;23.17;9.98;;;;;;;-3.78;100.00;99025.63;4214487;28;20036;-75
2023/01/26 06:25:40;;;;;;;17.42;8.05;;;;;;;-3.78;100.00;99031.03;4219938;28;20063;-75
2023/01/26 06:27:40;;;;;;;19.58;8.68;;;;;;;-3.75;100.00;99032.38;4220227;28;20043;-75
2023/01/26 06:29:41;;;;;;;21.52;8.80;;;;;;;-3.78;100.00;99033.75;4220281;28;20498;-75
2023/01/26 06:31:42;;;;;;;19.60;7.38;;;;;;;-3.80;100.00;99033.22;4220060;28;20534;-75
2023/01/26 06:33:42;;;;;;;19.13;8.45;;;;;;;-3.78;100.00;99030.22;4220727;27;20036;-75
2023/01/26 06:35:42;;;;;;;19.42;7.55;;;;;;;-3.80;100.00;99025.09;4220399;28;20625;-75
2023/01/26 06:37:44;;;;;;;14.30;7.10;;;;;;;-3.80;100.00;99033.22;4216951;28;20481;-75
2023/01/26 06:39:44;;;;;;;16.98;7.78;;;;;;;-3.78;100.00;99031.03;4218705;27;20297;-75
2023/01/26 06:41:44;;;;;;;15.27;7.03;;;;;;;-3.81;100.00;99033.44;4221483;28;20082;-75
2023/01/26 06:43:47;;;;;;;17.65;7.05;;;;;;;-3.80;100.00;99043.22;4219960;28;20036;-75
2023/01/26 06:45:48;;;;;;;15.35;6.90;;;;;;;-3.86;100.00;99036.16;4205827;28;20044;-75
2023/01/26 06:47:50;;;;;;;13.70;6.63;;;;;;;-3.79;100.00;99040.22;4217163;28;20066;-75
2023/01/26 06:49:50;;;;;;;15.15;7.32;;;;;;;-3.84;100.00;99020.47;4214605;28;20484;-75
2023/01/26 06:52:21;;;;;;;16.10;7.15;;;;;;;-3.78;100.00;99036.44;4214526;27;20299;-75
2023/01/26 06:54:21;;;;;;;16.85;7.13;;;;;;;-3.87;100.00;99027.25;4204738;28;20059;-75
2023/01/26 06:56:23;;;;;;;15.77;7.32;;;;;;;-3.92;100.00;99034.53;4211290;28;20464;-75
2023/01/26 06:58:23;;;;;;;14.43;6.43;;;;;;;-3.91;100.00;99036.97;4219753;28;20539;-75
2023/01/26 07:00:23;;;;;;;17.67;7.22;;;;;;;-3.90;100.00;99032.38;4219532;27;20032;-74
2023/01/26 07:02:24;;;;;;;15.57;6.93;;;;;;;-3.91;100.00;99039.66;4219984;28;20089;-75
2023/01/26 07:04:26;;;;;;;17.48;7.50;;;;;;;-3.85;100.00;99033.19;4220964;27;20047;-75
2023/01/26 07:06:26;;;;;;;13.15;6.32;;;;;;;-3.90;100.00;99032.38;4219697;28;20076;-75
2023/01/26 07:08:26;;;;;;;14.00;6.75;;;;;;;-3.93;100.00;99036.44;4219646;28;20034;-75
2023/01/26 07:10:27;;;;;;;12.52;6.25;;;;;;;-3.91;100.00;99041.56;4220426;28;20043;-74
2023/01/26 07:12:37;;;;;;;14.25;6.10;;;;;;;-3.94;100.00;99034.81;4214133;28;20209;-75
2023/01/26 07:14:38;;;;;;;14.90;6.95;;;;;;;-3.96;100.00;99037.78;4219838;28;20195;-75
2023/01/26 07:16:38;;;;;;;13.70;7.32;;;;;;;-3.97;100.00;99038.06;4216476;27;20038;-75
2023/01/26 07:18:38;;;;;;;12.48;6.50;;;;;;;-3.97;100.00;99033.47;4206437;28;20514;-75
2023/01/26 07:20:39;;;;;;;12.20;5.63;;;;;;;-3.97;100.00;99036.19;4208892;28;20043;-75
2023/01/26 07:22:39;;;;;;;10.90;6.15;;;;;;;-3.97;100.00;99036.19;4218949;28;20096;-75
2023/01/26 07:24:39;;;;;;;14.77;7.32;;;;;;;-3.94;100.00;99045.63;4219869;27;20145;-75
2023/01/26 07:26:39;;;;;;;12.60;6.47;;;;;;;-3.94;100.00;99044.81;4213882;28;20082;-75
2023/01/26 07:28:40;;;;;;;16.92;6.72;;;;;;;-3.89;100.00;99044.81;4219459;28;20040;-75
2023/01/26 07:30:40;;;;;;;12.50;6.60;;;;;;;-3.90;100.00;99038.59;4215721;28;20048;-75
2023/01/26 07:32:41;;;;;;;14.13;6.88;;;;;;;-3.88;100.00;99046.44;4204722;28;20062;-74
2023/01/26 07:34:41;;;;;;;14.45;7.38;;;;;;;-3.88;100.00;99039.16;4205223;27;20041;-75
2023/01/26 07:36:42;;;;;;;15.30;6.22;;;;;;;-3.89;100.00;99042.09;4204339;28;20488;-74
2023/01/26 07:38:42;;;;;;;13.70;6.32;;;;;;;-3.91;100.00;99034.25;4204541;28;20051;-75
2023/01/26 07:40:42;;;;;;;15.48;7.57;;;;;;;-3.93;100.00;99031.03;4204404;28;20043;-74
2023/01/26 07:42:43;;;;;;;14.70;6.95;;;;;;;-3.93;100.00;99036.44;4203775;28;20082;-75
2023/01/26 07:44:43;;;;;;;12.77;5.57;;;;;;;-3.91;100.00;99042.38;4204694;28;20095;-74
2023/01/26 07:46:43;;;;;;;12.77;6.28;;;;;;;-3.94;100.00;99040.22;4216674;28;20082;-75
2023/01/26 07:48:43;;;;;;;13.45;6.82;;;;;;;-3.96;100.00;99034.28;4219128;28;20481;-75
2023/01/26 07:50:46;;;;;;;14.93;7.28;;;;;;;-3.94;100.00;99042.94;4219968;28;20075;-75
2023/01/26 07:52:47;;;;;;;;;;;;;;;-3.92;100.00;99038.06;4218691;28;20387;-75
2023/01/26 07:54:47;;;;;;;15.55;7.15;;;;;;;-3.92;100.00;99040.75;4219271;28;19918;-75
2023/01/26 07:56:52;;;;;;;16.02;7.10;;;;;;;-3.87;100.00;99045.38;4219520;28;20048;-75
2023/01/26 07:58:54;;;;;;;13.95;7.55;;;;;;;-3.97;100.00;99038.06;4219315;28;20051;-75
2023/01/26 08:00:55;;;;;;;13.63;6.90;;;;;;;-3.90;100.00;99049.41;4211795;27;20044;-74
2023/01/26 08:02:55;;;;;;;23.27;10.75;;;;;;;-4.02;100.00;99033.47;4219478;28;20040;-75
2023/01/26 08:04:56;;;;;;;15.57;8.25;;;;;;;-3.99;100.00;99034.81;4213148;28;20051;-75
2023/01/26 08:06:56;;;;;;;16.20;6.05;;;;;;;-3.96;100.00;99029.69;4203744;28;20092;-75
2023/01/26 08:08:56;;;;;;;17.70;8.40;;;;;;;-3.93;100.00;99032.91;4204476;28;20040;-75
2023/01/26 08:10:59;;;;;;;15.27;6.95;;;;;;;-3.92;100.00;99032.66;4203856;28;20115;-75
2023/01/26 08:13:00;;;;;;;;;;;;;;;-3.94;100.00;99034.00;4211683;28;20047;-74
2023/01/26 08:15:00;;;;;;;14.05;6.47;;;;;;;-3.94;100.00;99039.41;4217261;28;19964;-75
2023/01/26 08:17:01;;;;;;;13.80;5.85;;;;;;;-3.93;100.00;99043.72;4202921;28;20051;-75
2023/01/26 08:19:02;;;;;;;14.95;6.68;;;;;;;-3.91;100.00;99038.88;4204037;28;20055;-75
2023/01/26 08:21:02;;;;;;;14.98;6.45;;;;;;;-3.88;100.00;99043.75;4218147;28;20051;-75
2023/01/26 08:23:02;;;;;;;11.25;5.82;;;;;;;-3.83;100.00;99043.72;4219292;28;20428;-75
2023/01/26 08:25:03;;;;;;;14.60;7.40;;;;;;;-3.90;100.00;99043.19;4218645;28;20043;-75
2023/01/26 08:27:03;;;;;;;19.20;8.77;;;;;;;-3.90;100.00;99051.28;4219404;28;20185;-75
2023/01/26 08:29:04;;;;;;;15.57;6.70;;;;;;;-3.91;100.00;99044.28;4206159;28;20079;-75
2023/01/26 08:31:16;;;;;;;11.40;6.00;;;;;;;-3.89;100.00;99040.19;4203507;28;20093;-74
2023/01/26 08:33:16;;;;;;;13.68;6.65;;;;;;;-3.90;100.00;99051.28;4203051;28;20062;-75
2023/01/26 08:35:17;;;;;;;12.35;5.93;;;;;;;-3.92;100.00;99040.75;4219778;28;20043;-75
2023/01/26 08:37:17;;;;;;;13.25;6.50;;;;;;;-3.87;100.00;99043.47;4219256;28;20384;-75
2023/01/26 08:39:18;;;;;;;9.45;5.30;;;;;;;-3.87;100.00;99048.06;4211538;28;20450;-75
2023/01/26 08:41:19;;;;;;;9.93;6.30;;;;;;;-3.86;100.00;99042.38;4219699;28;20387;-74
2023/01/26 08:43:19;;;;;;;12.95;6.93;;;;;;;-3.87;100.00;99051.59;4211960;28;20040;-75
2023/01/26 08:45:19;;;;;;;12.75;6.43;;;;;;;-3.86;100.00;99050.50;4205362;28;20082;-75
2023/01/26 08:47:20;;;;;;;12.70;6.60;;;;;;;-3.83;100.00;99057.25;4218879;28;20128;-75
2023/01/26 08:49:20;;;;;;;12.07;5.75;;;;;;;-3.83;100.00;99058.06;4215725;28;20044;-75
2023/01/26 08:51:20;;;;;;;16.73;6.70;;;;;;;-3.79;100.00;99051.03;4203520;28;20067;-75
2023/01/26 08:53:22;;;;;;;12.07;6.07;;;;;;;-3.75;100.00;99052.13;4204208;28;20479;-75
2023/01/26 08:55:22;;;;;;;14.63;6.72;;;;;;;-3.74;100.00;99061.84;4219364;28;20039;-75
2023/01/26 08:57:22;;;;;;;13.00;6.63;;;;;;;-3.74;100.00;99052.91;4217910;28;20131;-75
2023/01/26 08:59:23;;;;;;;15.40;6.88;;;;;;;-3.76;100.00;99052.38;4218304;28;20298;-75
2023/01/26 09:01:23;;;;;;;14.65;7.60;;;;;;;-3.78;100.00;99051.84;4210173;28;20048;-75
2023/01/26 09:03:24;;;;;;;14.77;8.25;;;;;;;-3.78;100.00;99052.66;4211736;28;20047;-75
2023/01/26 09:05:24;;;;;;;13.05;6.93;;;;;;;-3.72;100.00;99061.59;4206576;28;20052;-75
2023/01/26 09:07:25;;;;;;;15.32;7.15;;;;;;;-3.70;100.00;99059.44;4204258;28;20036;-75
2023/01/26 09:09:25;;;;;;;16.00;8.32;;;;;;;-3.79;100.00;99056.47;4219177;28;20525;-75
2023/01/26 09:11:26;;;;;;;14.82;7.50;;;;;;;-3.79;100.00;99058.34;4201611;28;20036;-75
2023/01/26 09:13:26;;;;;;;14.93;7.95;;;;;;;-3.81;100.00;99068.59;4211734;28;20043;-74
2023/01/26 09:15:27;;;;;;;16.85;8.43;;;;;;;-3.80;100.00;99070.25;4213084;28;20358;-75
2023/01/26 09:17:27;;;;;;;15.15;7.32;;;;;;;-3.80;100.00;99079.16;4203148;28;20480;-75
2023/01/26 09:19:27;;;;;;;15.07;6.97;;;;;;;-3.70;100.00;99072.94;4203369;28;20064;-74
2023/01/26 09:21:28;;;;;;;16.60;7.25;;;;;;;-3.79;100.00;99077.28;4202653;28;20651;-75
2023/01/26 09:23:28;;;;;;;15.45;7.13;;;;;;;-3.77;100.00;99075.91;4212076;28;20075;-74
2023/01/26 09:25:30;;;;;;;15.48;7.60;;;;;;;-3.80;100.00;99072.94;4216251;28;20529;-75
2023/01/26 09:27:30;;;;;;;15.13;7.47;;;;;;;-3.79;100.00;99077.28;4214650;28;20075;-75
2023/01/26 09:29:30;;;;;;;14.95;6.50;;;;;;;-3.82;100.00;99075.91;4202989;28;20126;-75
2023/01/26 09:31:31;;;;;;;20.23;8.13;;;;;;;-3.90;100.00;99075.63;4203315;28;20075;-75
2023/01/26 09:33:32;;;;;;;16.70;7.57;;;;;;;-3.92;100.00;99078.59;4215835;28;20104;-75
2023/01/26 09:35:32;;;;;;;14.93;6.75;;;;;;;-3.87;100.00;99067.00;4202851;28;20048;-75
2023/01/26 09:37:33;;;;;;;14.02;6.63;;;;;;;-3.90;100.00;99076.44;4213825;28;20523;-75
2023/01/26 09:39:34;;;;;;;16.08;6.90;;;;;;;-3.94;100.00;99071.84;4213003;28;20447;-75
2023/01/26 09:41:56;;;;;;;16.27;7.28;;;;;;;-3.91;100.00;99074.81;4205027;28;20468;-75
2023/01/26 09:44:01;;;;;;;16.13;7.90;;;;;;;-4.00;100.00;99073.72;4216976;28;20761;-75
2023/01/26 09:46:22;;;;;;;18.85;8.68;;;;;;;-3.96;100.00;99078.34;4218666;28;20044;-75
2023/01/26 09:48:49;;;;;;;17.23;7.20;;;;;;;-3.90;100.00;99075.63;4218101;28;20088;-74
2023/01/26 09:51:22;;;;;;;16.30;7.63;;;;;;;-3.84;100.00;99074.56;4218517;28;20134;-74
2023/01/26 09:53:38;;;;;;;16.30;6.65;;;;;;;-3.81;100.00;99076.72;4201138;28;20048;-75
2023/01/26 09:55:41;;;;;;;16.08;8.02;;;;;;;-3.86;100.00;99074.84;4202503;28;20043;-75
2023/01/26 09:58:02;;;;;;;17.33;7.72;;;;;;;-3.89;100.00;99086.16;4204962;28;20060;-75
2023/01/26 10:00:24;;;;;;;11.38;6.75;;;;;;;-3.87;100.00;99083.22;4215918;28;20087;-75
2023/01/26 10:02:33;;;;;;;20.67;8.05;;;;;;;-3.88;100.00;99085.13;4209425;28;20055;-75
2023/01/26 10:04:38;;;;;;;21.77;10.30;;;;;;;-3.93;100.00;99076.97;4206412;28;20194;-75
2023/01/26 10:06:40;;;;;;;17.02;8.30;;;;;;;-3.91;100.00;99064.00;4207844;28;20189;-74
2023/01/26 10:08:43;;;;;;;19.02;8.95;;;;;;;-3.90;100.00;99067.50;4220342;28;20524;-75